Portada
METAR-TAF:

METAR-TAF

Aeroports :

Malakula, Vanuatu

latitud: 16-27-26S, longitud: 167-49-42E, altitud: 2 m

Observació

L'informe es va fer fa 3 hores i 23 minuts, a les 06:00 UTC
Vent 6 kt del Sud-Est
Temperatura 27°C
Humitat 74%
Pressió 1012 hPa

METAR: NVSL 120600Z AUTO 14006KT //// // NCD 27/22 Q1012

Hora: 20:23 (09:23 UTC)

Pronòstic

L'informe es va fer fa 4 hores i 53 minuts, a les 04:30 UTC
Pronòstic vàlid del 12 a les 06 UTC al 13 a les 06 UTC
Vent 8 kt del Est/Sud-Est
Visibilitat 10 km o més
Núvols disperses a una alçada de 2000 ft

TAF: NVSL 120430Z 1206/1306 12008KT 9999 SCT020

Observacions i pronòstics meteorològics de més de 4000 aeroports (METAR i TAF).

Les estacions disponibles són els punts grocs i vermells al mapa.

Posi el ratolí al punt desitjat per veure el nom de l'estació.

Feu clic per veure les observacions i els pronòstics meteorològics.

Per canviar el mapa: feu clic els botons verds amb una creu de color negre per apropar; al botó verd amb un guió per allunyar la imatge; o en les fletxes verdes per a mapes adjacents.


METAR-TAF: